Time;durP1;ratioP1;P1;durP2;ratioP2;P2;SDS_P1;SDS_P2;PMS_P1;PMS_P2;Temp;Humidity;BMP_temperature;BMP_pressure;BME280_temperature;BME280_humidity;BME280_pressure;Samples;Min_cycle;Max_cycle;Signal;HPM_P1;HPM_P2
2023/07/11 00:02:18;;;;;;;5.75;5.13;;;;;;;-144.30;42.39;84001.19;5069698;28;20192;-51
2023/07/11 00:04:45;;;;;;;5.45;5.05;;;;;;;-144.30;42.53;84040.91;5069641;28;20191;-49
2023/07/11 00:07:12;;;;;;;5.97;5.55;;;;;;;-144.30;42.83;84029.00;5069378;28;20274;-50
2023/07/11 00:09:38;;;;;;;5.13;4.72;;;;;;;-144.30;43.02;84031.00;5069443;28;20278;-49
2023/07/11 00:12:08;;;;;;;6.60;5.68;;;;;;;-144.30;43.19;84019.06;5069801;28;20227;-51
2023/07/11 00:14:36;;;;;;;6.00;5.53;;;;;;;-144.30;43.15;84058.81;5069516;28;20192;-48
2023/07/11 00:17:05;;;;;;;5.57;5.18;;;;;;;-144.30;43.07;84078.69;5067180;28;20219;-49
2023/07/11 00:19:45;;;;;;;5.88;5.50;;;;;;;-144.30;43.44;84040.91;5069604;28;20224;-49
2023/07/11 00:22:12;;;;;;;6.13;5.25;;;;;;;-144.30;43.49;84064.78;5067805;28;20191;-51
2023/07/11 00:24:39;;;;;;;6.68;5.18;;;;;;;-144.30;43.57;83995.22;5069257;28;20196;-51
2023/07/11 00:27:08;;;;;;;6.57;5.95;;;;;;;-144.30;43.67;84068.75;5069288;28;20184;-48
2023/07/11 00:29:35;;;;;;;5.47;5.05;;;;;;;-144.30;43.99;84136.31;5069805;28;20668;-48
2023/07/11 00:32:02;;;;;;;5.75;5.10;;;;;;;-144.30;43.68;84112.47;5069144;28;20595;-51
2023/07/11 00:34:28;;;;;;;5.68;5.28;;;;;;;-144.30;43.65;84076.69;5069149;28;20188;-51
2023/07/11 00:36:55;;;;;;;5.80;5.40;;;;;;;-144.30;43.77;84066.75;5069421;28;20227;-48
2023/07/11 00:39:22;;;;;;;7.72;5.65;;;;;;;-144.30;43.57;84080.66;5068946;28;20202;-48
2023/07/11 00:41:49;;;;;;;5.93;5.45;;;;;;;-144.30;43.31;84120.41;5069366;28;20196;-48
2023/07/11 00:44:18;;;;;;;6.47;5.78;;;;;;;-144.30;43.29;84088.63;5069070;28;20198;-51
2023/07/11 00:46:45;;;;;;;6.65;6.05;;;;;;;-144.30;43.35;84078.69;5069184;28;20192;-49
2023/07/11 00:49:16;;;;;;;5.75;5.35;;;;;;;-144.30;43.20;84078.69;5068914;28;20192;-51
2023/07/11 00:51:46;;;;;;;5.93;5.43;;;;;;;-144.30;43.14;84082.66;5066456;28;20188;-49
2023/07/11 00:54:17;;;;;;;6.68;5.55;;;;;;;-144.30;42.93;84068.75;5068882;28;20203;-49
2023/07/11 00:56:46;;;;;;;7.25;5.70;;;;;;;-144.30;42.95;84082.66;5066449;28;20219;-51
2023/07/11 00:59:15;;;;;;;9.82;6.10;;;;;;;-144.30;42.90;84038.94;5068717;28;20196;-49
2023/07/11 01:01:46;;;;;;;5.93;5.30;;;;;;;-144.30;42.86;84064.78;5065577;28;20195;-49
2023/07/11 01:04:14;;;;;;;10.70;6.43;;;;;;;-144.30;42.80;84090.59;5069045;28;20663;-51
2023/07/11 01:06:41;;;;;;;10.15;5.72;;;;;;;-144.30;42.76;84064.78;5069067;28;20192;-51
2023/07/11 01:09:08;;;;;;;6.75;5.82;;;;;;;-144.30;42.67;84084.66;5068878;28;20202;-50
2023/07/11 01:11:53;;;;;;;6.15;5.75;;;;;;;-144.30;42.71;84038.94;5069064;28;20195;-48
2023/07/11 01:14:20;;;;;;;6.93;5.30;;;;;;;-144.30;42.71;84048.88;5068065;28;20196;-51
2023/07/11 01:16:48;;;;;;;6.28;5.72;;;;;;;-144.30;42.73;84088.63;5068804;28;20214;-51
2023/07/11 01:19:15;;;;;;;6.10;5.70;;;;;;;-144.30;42.60;84090.59;5068691;28;20192;-48
2023/07/11 01:21:43;;;;;;;5.72;5.28;;;;;;;-144.30;42.78;84184.00;5068789;28;20196;-51
2023/07/11 01:24:11;;;;;;;5.72;5.32;;;;;;;-144.30;42.71;84058.81;5068530;28;20196;-48
2023/07/11 01:26:38;;;;;;;6.25;5.68;;;;;;;-144.30;42.70;84044.91;5068951;28;20191;-50
2023/07/11 01:29:05;;;;;;;5.22;4.93;;;;;;;-144.30;42.72;84720.59;5068578;28;20200;-51
2023/07/11 01:31:33;;;;;;;6.22;5.70;;;;;;;-144.30;42.71;84084.66;5068677;28;20283;-50
2023/07/11 01:34:01;;;;;;;5.72;5.30;;;;;;;-144.30;42.67;84054.84;5068610;28;20641;-49
2023/07/11 01:36:28;;;;;;;5.38;5.00;;;;;;;-144.30;42.88;84044.91;5068335;28;20289;-50
2023/07/11 01:38:57;;;;;;;6.47;5.50;;;;;;;-144.30;43.17;84076.69;5068679;28;20196;-50
2023/07/11 01:41:24;;;;;;;6.55;5.80;;;;;;;-144.30;43.44;84106.50;5065776;28;20212;-48
2023/07/11 01:43:52;;;;;;;8.68;6.15;;;;;;;-144.30;43.66;84088.63;5068666;28;20287;-49
2023/07/11 01:46:19;;;;;;;5.57;5.18;;;;;;;-144.30;43.81;84124.38;5068521;28;20227;-49
2023/07/11 01:48:46;;;;;;;5.45;5.05;;;;;;;-144.30;43.84;84114.44;5068625;28;20206;-48
2023/07/11 01:51:13;;;;;;;6.22;5.50;;;;;;;-144.30;43.75;84128.34;5068272;28;20643;-49
2023/07/11 01:53:40;;;;;;;6.38;5.75;;;;;;;-144.30;43.99;84152.22;5069197;28;20192;-49
2023/07/11 01:56:08;;;;;;;5.63;5.32;;;;;;;-144.30;44.08;84130.34;5068720;28;20314;-50
2023/07/11 01:58:35;;;;;;;6.68;6.03;;;;;;;-144.30;44.31;84138.28;5069130;28;20648;-51
2023/07/11 02:01:02;;;;;;;6.28;5.75;;;;;;;-144.30;44.26;84104.50;5068838;28;20207;-49
2023/07/11 02:03:29;;;;;;;6.22;5.72;;;;;;;-144.30;44.30;84160.16;5068916;28;20202;-49
2023/07/11 02:05:56;;;;;;;6.25;5.85;;;;;;;-144.30;44.23;84074.72;5068890;28;20203;-50
2023/07/11 02:08:23;;;;;;;6.38;5.97;;;;;;;-144.30;44.18;84148.22;5068456;28;20257;-51
2023/07/11 02:10:50;;;;;;;6.40;5.88;;;;;;;-144.30;44.49;84120.41;5069104;28;20580;-50
2023/07/11 02:13:18;;;;;;;7.03;6.53;;;;;;;-144.30;44.64;84172.06;5069972;28;20196;-51
2023/07/11 02:15:45;;;;;;;6.35;5.95;;;;;;;-144.30;44.74;84142.28;5072596;28;20688;-51
2023/07/11 02:18:12;;;;;;;6.72;5.80;;;;;;;-144.30;44.96;84203.88;5072525;28;20289;-48
2023/07/11 02:20:43;;;;;;;6.13;5.72;;;;;;;-144.30;45.16;84134.31;5072424;28;20214;-52
2023/07/11 02:23:10;;;;;;;5.80;5.30;;;;;;;-144.30;45.29;84197.91;5072035;28;20222;-50
2023/07/11 02:25:37;;;;;;;6.55;6.00;;;;;;;-144.30;45.21;84211.81;5072372;28;20582;-49
2023/07/11 02:28:05;;;;;;;5.90;5.53;;;;;;;-144.30;45.03;84245.59;5071491;28;20204;-48
2023/07/11 02:30:34;;;;;;;6.47;6.07;;;;;;;-144.30;44.93;84189.97;5071668;28;20192;-50
2023/07/11 02:33:01;;;;;;;6.22;5.82;;;;;;;-144.30;44.82;84396.66;5072170;28;20683;-49
2023/07/11 02:35:28;;;;;;;6.00;5.57;;;;;;;-144.30;44.73;84187.97;5071700;28;20232;-51
2023/07/11 02:37:55;;;;;;;6.32;5.72;;;;;;;-144.30;44.97;84203.88;5072190;28;20204;-50
2023/07/11 02:40:22;;;;;;;9.32;6.03;;;;;;;-144.30;44.86;84712.66;5071659;28;20200;-51
2023/07/11 02:42:49;;;;;;;6.22;5.70;;;;;;;-144.30;44.83;84168.09;5072105;28;20707;-50
2023/07/11 02:45:16;;;;;;;7.72;6.32;;;;;;;-144.30;44.69;84207.84;5071716;28;20555;-51
2023/07/11 02:47:44;;;;;;;6.88;6.18;;;;;;;-144.30;44.62;84128.34;5071972;28;20195;-50
2023/07/11 02:50:11;;;;;;;6.70;6.10;;;;;;;-144.30;44.46;84184.00;5071581;28;20200;-51
2023/07/11 02:52:38;;;;;;;6.25;5.80;;;;;;;-144.30;44.31;84211.81;5071598;28;20199;-51
2023/07/11 02:55:07;;;;;;;6.43;6.03;;;;;;;-144.30;44.30;84211.81;5071618;28;20222;-50
2023/07/11 02:57:33;;;;;;;7.05;5.95;;;;;;;-144.30;44.62;84219.78;5071531;28;20226;-49
2023/07/11 03:00:00;;;;;;;7.45;6.25;;;;;;;-144.30;44.56;84176.06;5071525;28;20552;-50
2023/07/11 03:02:27;;;;;;;8.43;5.88;;;;;;;-144.30;44.62;84203.88;5071930;28;20196;-50
2023/07/11 03:04:56;;;;;;;7.35;6.60;;;;;;;-144.30;44.71;84245.59;5071277;28;20215;-49
2023/07/11 03:07:23;;;;;;;7.32;6.70;;;;;;;-144.30;44.74;84215.78;5071345;28;20195;-50
2023/07/11 03:09:50;;;;;;;6.80;6.30;;;;;;;-144.30;44.75;84231.69;5071487;28;20204;-48
2023/07/11 03:12:16;;;;;;;6.60;6.00;;;;;;;-144.30;44.83;84166.13;5071814;28;20651;-51
2023/07/11 03:14:43;;;;;;;8.60;5.82;;;;;;;-144.30;45.08;84158.16;5071681;28;20195;-51
2023/07/11 03:17:10;;;;;;;6.22;5.82;;;;;;;-144.30;45.07;84193.94;5070946;28;20219;-50
2023/07/11 03:19:37;;;;;;;7.00;6.13;;;;;;;-144.30;45.31;84223.75;5071299;28;20202;-49
2023/07/11 03:22:05;;;;;;;6.97;6.30;;;;;;;-144.30;45.59;84843.84;5070806;28;20638;-50
2023/07/11 03:24:32;;;;;;;8.45;6.15;;;;;;;-144.30;45.65;84186.00;5070341;28;20552;-48
2023/07/11 03:26:59;;;;;;;6.45;5.78;;;;;;;-144.30;45.72;84243.63;5070046;28;20192;-50
2023/07/11 03:29:26;;;;;;;7.97;6.40;;;;;;;-144.30;46.01;84245.59;5070814;28;20203;-49
2023/07/11 03:31:53;;;;;;;7.00;6.40;;;;;;;-144.30;45.86;84239.66;5070811;28;20699;-49
2023/07/11 03:34:20;;;;;;;6.32;5.63;;;;;;;-144.30;45.69;84217.78;5070968;28;20668;-48
2023/07/11 03:36:47;;;;;;;7.10;6.25;;;;;;;-144.30;45.63;84203.88;5070616;28;20231;-51
2023/07/11 03:39:15;;;;;;;8.23;6.20;;;;;;;-144.30;45.54;84215.78;5070738;28;20199;-50
2023/07/11 03:41:42;;;;;;;6.13;5.63;;;;;;;-144.30;45.29;84154.19;5070674;28;20195;-50
2023/07/11 03:44:10;;;;;;;7.40;6.70;;;;;;;-144.30;44.89;84187.97;5070013;28;20196;-49
2023/07/11 03:46:36;;;;;;;6.90;6.30;;;;;;;-144.30;44.71;84170.09;5071146;28;20196;-49
2023/07/11 03:49:03;;;;;;;7.10;6.47;;;;;;;-144.30;44.53;84140.28;5070425;28;20584;-52
2023/07/11 03:51:30;;;;;;;8.70;6.07;;;;;;;-144.30;44.52;84164.13;5070653;28;20202;-50
2023/07/11 03:53:57;;;;;;;6.60;6.05;;;;;;;-144.30;44.09;84120.41;5070522;28;20794;-52
2023/07/11 03:56:27;;;;;;;6.05;5.70;;;;;;;-144.30;43.87;84064.78;5070247;28;20232;-50
2023/07/11 03:58:54;;;;;;;9.85;6.35;;;;;;;-144.30;43.06;83989.25;5070272;28;20261;-51
2023/07/11 04:01:21;;;;;;;7.50;6.80;;;;;;;-144.30;41.52;83917.72;5070236;28;20231;-50
2023/07/11 04:03:48;;;;;;;9.82;6.10;;;;;;;-144.30;40.47;83754.78;5070376;28;20257;-49
2023/07/11 04:06:15;;;;;;;7.07;5.80;;;;;;;-144.30;39.46;83713.06;5070154;28;20191;-52
2023/07/11 04:08:43;;;;;;;7.20;5.65;;;;;;;-144.30;38.20;83520.31;5070222;28;20192;-51
2023/07/11 04:11:10;;;;;;;6.32;5.82;;;;;;;-144.30;36.89;83341.50;5069667;28;20203;-51
2023/07/11 04:13:38;;;;;;;11.18;6.72;;;;;;;-144.30;37.02;83182.56;5069262;28;20196;-52
2023/07/11 04:16:06;;;;;;;8.25;5.68;;;;;;;-144.30;34.85;82993.84;5069676;28;20769;-52
2023/07/11 04:18:33;;;;;;;7.78;6.20;;;;;;;-144.30;33.87;82789.25;5069903;28;20598;-51
2023/07/11 04:21:00;;;;;;;11.73;6.03;;;;;;;-144.30;31.93;82578.69;5069586;28;20207;-53
2023/07/11 04:23:26;;;;;;;7.97;5.95;;;;;;;-144.30;31.15;82391.97;5069565;28;20206;-53
2023/07/11 04:25:54;;;;;;;7.82;6.05;;;;;;;-144.30;30.41;82193.38;5069618;28;20668;-52
2023/07/11 04:28:21;;;;;;;7.38;6.20;;;;;;;-144.30;29.94;82070.22;5069817;28;20200;-51
2023/07/11 04:30:49;;;;;;;6.25;5.65;;;;;;;-144.30;29.63;82034.47;5070004;28;20283;-50
2023/07/11 04:33:16;;;;;;;8.13;6.55;;;;;;;-144.30;29.87;82072.22;5069277;28;20196;-52
2023/07/11 04:35:44;;;;;;;6.55;5.65;;;;;;;-144.30;29.40;82030.50;5068937;28;20446;-51
2023/07/11 04:38:11;;;;;;;6.57;5.97;;;;;;;-144.30;29.09;81962.97;5069465;28;20595;-51
2023/07/11 04:40:38;;;;;;;10.82;5.97;;;;;;;-144.30;28.67;81736.59;5069669;28;20200;-50
2023/07/11 04:43:05;;;;;;;10.07;6.65;;;;;;;-144.30;28.34;81696.88;5069657;28;20671;-53
2023/07/11 04:45:32;;;;;;;7.38;6.18;;;;;;;-144.30;27.97;81541.97;5062967;28;20580;-52
2023/07/11 04:48:01;;;;;;;6.95;5.70;;;;;;;-144.30;27.54;81414.91;5049337;28;20291;-52
2023/07/11 04:50:28;;;;;;;8.88;5.70;;;;;;;-144.30;27.45;81381.16;5049430;28;20196;-52
2023/07/11 04:52:55;;;;;;;8.05;5.88;;;;;;;-144.30;27.21;81299.72;5049462;28;20194;-52
2023/07/11 04:55:22;;;;;;;6.43;5.93;;;;;;;-144.30;27.12;81208.41;5049047;28;20200;-52
2023/07/11 04:57:49;;;;;;;9.95;6.80;;;;;;;-144.30;26.64;81017.78;5049393;28;20219;-50
2023/07/11 05:00:16;;;;;;;12.10;5.50;;;;;;;-144.30;26.29;80785.50;5048755;28;20731;-51
2023/07/11 05:02:43;;;;;;;8.70;6.30;;;;;;;-144.30;25.92;80727.94;5049312;28;20575;-52
2023/07/11 05:05:11;;;;;;;7.45;5.82;;;;;;;-144.30;25.63;80662.44;5049086;28;20207;-51
2023/07/11 05:07:38;;;;;;;5.80;5.30;;;;;;;-144.30;25.66;80600.88;5049139;28;20589;-52
2023/07/11 05:10:07;;;;;;;8.45;5.88;;;;;;;-144.30;25.66;80684.25;5048900;28;20234;-53
2023/07/11 05:12:33;;;;;;;13.57;5.95;;;;;;;-144.30;26.07;80775.59;5049217;28;20192;-51
2023/07/11 05:15:01;;;;;;;6.43;5.68;;;;;;;-144.30;25.32;80549.28;5048786;28;20696;-52
2023/07/11 05:17:28;;;;;;;11.63;5.88;;;;;;;-144.30;25.37;80485.75;5049232;28;20228;-50
2023/07/11 05:19:55;;;;;;;8.65;5.40;;;;;;;-144.30;25.05;80410.31;5049209;28;20192;-51
2023/07/11 05:22:23;;;;;;;6.88;5.88;;;;;;;-144.30;24.90;80235.63;5063069;28;20195;-52
2023/07/11 05:24:54;;;;;;;6.95;6.30;;;;;;;-144.30;24.75;80088.75;5069588;28;20199;-49
2023/07/11 05:27:21;;;;;;;6.68;6.13;;;;;;;-144.30;24.53;79949.81;5066648;28;20226;-49
2023/07/11 05:29:48;;;;;;;8.82;6.47;;;;;;;-144.30;24.43;79816.81;5064463;28;20195;-51
2023/07/11 05:32:15;;;;;;;10.63;6.32;;;;;;;-144.30;24.47;79890.25;5066646;28;20209;-50
2023/07/11 05:34:42;;;;;;;9.90;6.43;;;;;;;-144.30;24.25;79840.66;5068057;28;20332;-52
2023/07/11 05:37:09;;;;;;;8.32;6.20;;;;;;;-144.30;24.25;79910.09;5068047;28;20219;-51
2023/07/11 05:39:37;;;;;;;5.40;5.10;;;;;;;-144.30;24.15;79894.22;5068399;28;20203;-52
2023/07/11 05:42:05;;;;;;;12.10;5.97;;;;;;;-144.30;24.36;79892.25;5066777;28;20281;-50
2023/07/11 05:44:32;;;;;;;8.25;6.00;;;;;;;-144.30;23.88;79985.53;5068282;28;20210;-51
2023/07/11 05:46:59;;;;;;;7.60;6.00;;;;;;;-144.30;24.04;79896.22;5068997;28;20191;-52
2023/07/11 05:49:26;;;;;;;9.98;6.25;;;;;;;-144.30;23.96;79947.81;5072057;28;20627;-51
2023/07/11 05:51:53;;;;;;;10.63;9.63;;;;;;;-144.30;24.23;79953.78;5071653;28;20205;-51
2023/07/11 05:54:20;;;;;;;9.20;6.40;;;;;;;-144.30;24.33;79973.63;5071876;28;20191;-52
2023/07/11 05:56:48;;;;;;;9.27;5.95;;;;;;;-144.30;24.20;79969.66;5071948;28;20227;-53
2023/07/11 05:59:15;;;;;;;6.63;6.03;;;;;;;-144.30;24.13;79975.59;5071867;28;20199;-51
2023/07/11 06:01:42;;;;;;;6.75;6.15;;;;;;;-144.30;24.15;80072.88;5072593;28;20203;-50
2023/07/11 06:04:12;;;;;;;14.30;6.25;;;;;;;-144.30;24.16;79985.53;5071684;28;20593;-50
2023/07/11 06:06:42;;;;;;;9.80;6.93;;;;;;;-144.30;24.30;79985.53;5072074;28;20199;-49
2023/07/11 06:09:11;;;;;;;7.05;5.95;;;;;;;-144.30;24.22;79914.09;5064258;28;20609;-50
2023/07/11 06:11:38;;;;;;;7.07;6.43;;;;;;;-144.30;24.40;79997.44;5058726;28;20215;-50
2023/07/11 06:14:07;;;;;;;13.52;7.00;;;;;;;-144.30;24.23;80080.81;5051546;28;20304;-52
2023/07/11 06:16:34;;;;;;;7.78;7.25;;;;;;;-144.30;24.31;80029.19;5051410;28;20203;-52
2023/07/11 06:19:01;;;;;;;12.20;8.73;;;;;;;-144.30;24.67;80033.16;5051637;28;20192;-51
2023/07/11 06:21:28;;;;;;;9.07;7.50;;;;;;;-144.30;24.57;80168.16;5051835;28;20282;-52
2023/07/11 06:23:55;;;;;;;12.15;9.43;;;;;;;-144.30;24.66;80182.03;5051459;28;20192;-50
2023/07/11 06:26:22;;;;;;;9.15;7.75;;;;;;;-144.30;24.90;80166.16;5051357;28;20203;-51
2023/07/11 06:28:49;;;;;;;9.82;6.10;;;;;;;-144.30;24.69;80263.41;5051415;28;20195;-51
2023/07/11 06:31:17;;;;;;;7.90;7.15;;;;;;;-144.30;25.07;80406.34;5051169;28;20192;-50
2023/07/11 06:33:44;;;;;;;11.00;6.82;;;;;;;-144.30;25.08;80384.50;5051657;28;20224;-51
2023/07/11 06:36:12;;;;;;;10.48;6.72;;;;;;;-144.30;25.25;80448.03;5050992;28;20228;-52
2023/07/11 06:38:39;;;;;;;12.55;8.48;;;;;;;-144.30;25.49;80483.75;5051401;28;20770;-49
2023/07/11 06:41:06;;;;;;;8.57;7.28;;;;;;;-144.30;25.69;80529.41;5051147;28;20573;-52
2023/07/11 06:43:33;;;;;;;9.20;5.95;;;;;;;-144.30;25.61;80477.81;5051035;28;20625;-50
2023/07/11 06:46:02;;;;;;;13.25;9.05;;;;;;;-144.30;25.67;80596.91;5051248;28;20202;-49
2023/07/11 06:48:32;;;;;;;15.88;8.88;;;;;;;-144.30;25.74;80577.06;5051198;28;20196;-51
2023/07/11 06:51:01;;;;;;;13.32;7.03;;;;;;;-144.30;26.34;80739.84;5051288;28;20196;-50
2023/07/11 06:53:29;;;;;;;21.13;17.77;;;;;;;-144.30;26.45;80714.03;5060385;28;20213;-49
2023/07/11 06:55:57;;;;;;;15.80;10.27;;;;;;;-144.30;26.62;80805.34;5052214;28;20212;-51
2023/07/11 06:58:24;;;;;;;11.45;10.40;;;;;;;-144.30;26.53;80809.34;5050007;28;20234;-49
2023/07/11 07:00:55;;;;;;;9.45;6.68;;;;;;;-144.30;26.92;80866.91;5050800;28;20198;-52
2023/07/11 07:03:23;;;;;;;11.30;8.95;;;;;;;-144.30;27.06;80962.19;5051030;28;20207;-52
2023/07/11 07:05:54;;;;;;;12.77;6.65;;;;;;;-144.30;27.11;80811.31;5061140;28;20208;-49
2023/07/11 07:08:23;;;;;;;12.30;6.65;;;;;;;-144.30;27.77;80932.41;5050448;28;20198;-50
2023/07/11 07:10:51;;;;;;;10.90;7.70;;;;;;;-144.30;27.06;80958.22;5050607;28;20211;-52
2023/07/11 07:13:19;;;;;;;11.15;6.55;;;;;;;-144.30;27.07;80930.44;5050358;28;20200;-51
2023/07/11 07:15:49;;;;;;;8.23;6.10;;;;;;;-144.30;26.87;81065.44;5050605;28;20202;-49
2023/07/11 07:18:16;;;;;;;8.45;5.65;;;;;;;-144.30;26.82;81061.47;5050275;28;20227;-51
2023/07/11 07:20:44;;;;;;;6.45;5.80;;;;;;;-144.30;27.15;81387.09;5050594;28;20196;-52
2023/07/11 07:23:13;;;;;;;8.00;6.82;;;;;;;-144.30;26.90;81125.00;5069676;28;20201;-47
2023/07/11 07:25:40;;;;;;;6.28;5.80;;;;;;;-144.30;27.57;81244.13;5070575;28;20581;-50
2023/07/11 07:28:08;;;;;;;6.97;5.82;;;;;;;-144.30;26.65;81043.59;5070422;28;20678;-50
2023/07/11 07:30:35;;;;;;;8.13;6.35;;;;;;;-144.30;26.82;80942.34;5070340;28;20214;-50
2023/07/11 07:33:02;;;;;;;10.82;6.45;;;;;;;-144.30;26.34;80954.25;5070159;28;20211;-53
2023/07/11 07:35:29;;;;;;;9.15;5.70;;;;;;;-144.30;26.46;80884.78;5070116;28;20254;-49
2023/07/11 07:37:56;;;;;;;8.27;6.75;;;;;;;-144.30;26.58;80910.59;5070105;28;20229;-48
2023/07/11 07:40:25;;;;;;;7.15;5.80;;;;;;;-144.30;26.04;81383.13;5070019;28;20290;-51
2023/07/11 07:42:52;;;;;;;8.15;5.78;;;;;;;-144.30;25.68;80942.34;5070296;28;20227;-49
2023/07/11 07:45:19;;;;;;;11.38;5.70;;;;;;;-144.30;25.90;80950.28;5070028;28;20711;-51
2023/07/11 07:47:46;;;;;;;12.02;6.60;;;;;;;-144.30;26.41;81057.50;5069852;28;20195;-52
2023/07/11 07:50:13;;;;;;;6.72;6.13;;;;;;;-144.30;26.35;81011.84;5069628;28;20195;-49
2023/07/11 07:52:40;;;;;;;15.13;6.95;;;;;;;-144.30;26.14;81033.69;5070204;28;20663;-49
2023/07/11 07:55:07;;;;;;;10.52;6.63;;;;;;;-144.30;26.34;80988.00;5070059;28;20202;-51
2023/07/11 07:57:36;;;;;;;6.25;5.75;;;;;;;-144.30;26.04;80856.97;5070398;28;20222;-51
2023/07/11 08:00:04;;;;;;;11.05;6.15;;;;;;;-144.30;25.73;80751.75;5069910;28;20202;-51
2023/07/11 08:02:32;;;;;;;11.07;6.22;;;;;;;-144.30;25.46;80656.47;5069896;28;20199;-50
2023/07/11 08:04:59;;;;;;;7.78;7.05;;;;;;;-144.30;25.43;80581.03;5069969;28;20214;-50
2023/07/11 08:07:27;;;;;;;7.22;6.43;;;;;;;-144.30;25.07;80549.28;5070609;28;20278;-50
2023/07/11 08:09:55;;;;;;;8.27;6.68;;;;;;;-144.30;24.94;80527.44;5069747;28;20668;-52
2023/07/11 08:12:22;;;;;;;11.18;6.07;;;;;;;-144.30;24.75;80374.56;5069286;28;20211;-51
2023/07/11 08:14:51;;;;;;;16.23;7.97;;;;;;;-144.30;24.64;80527.44;5069426;28;20219;-49
2023/07/11 08:17:18;;;;;;;8.48;6.65;;;;;;;-144.30;25.07;80485.75;5069052;28;20602;-51
2023/07/11 08:19:44;;;;;;;9.25;5.55;;;;;;;-144.30;25.14;80610.81;5069617;28;20199;-52
2023/07/11 08:22:12;;;;;;;7.55;5.20;;;;;;;-144.30;24.93;80513.53;5069282;28;20214;-52
2023/07/11 08:24:39;;;;;;;25.08;6.55;;;;;;;-144.30;24.65;80390.47;5069571;28;20218;-52
2023/07/11 08:27:06;;;;;;;8.85;5.45;;;;;;;-144.30;24.41;80354.72;5069231;28;20206;-50
2023/07/11 08:29:33;;;;;;;8.40;5.30;;;;;;;-144.30;24.28;80195.94;5069166;28;20195;-50
2023/07/11 08:32:01;;;;;;;6.72;5.35;;;;;;;-144.30;24.12;80108.59;5069111;28;20646;-50
2023/07/11 08:34:28;;;;;;;9.43;5.00;;;;;;;-144.30;24.03;80072.88;5069091;28;20202;-50
2023/07/11 08:36:55;;;;;;;7.88;6.20;;;;;;;-144.30;24.16;80269.38;5069433;28;20223;-52
2023/07/11 08:39:22;;;;;;;6.15;5.75;;;;;;;-144.30;24.45;80402.38;5068894;28;20223;-51
2023/07/11 08:41:52;;;;;;;13.00;5.90;;;;;;;-144.30;24.37;80384.50;5069210;28;20693;-51
2023/07/11 08:44:27;;;;;;;8.88;5.72;;;;;;;-144.30;24.91;80616.75;5068688;28;20195;-51
2023/07/11 08:47:00;;;;;;;7.80;5.53;;;;;;;-144.30;24.87;80692.19;5069107;28;20203;-50
2023/07/11 08:49:35;;;;;;;12.45;5.63;;;;;;;-144.30;25.29;80831.16;5068913;28;20198;-51
2023/07/11 08:52:08;;;;;;;6.65;5.78;;;;;;;-144.30;25.54;80892.72;5068773;28;20651;-50
2023/07/11 08:54:41;;;;;;;9.13;5.97;;;;;;;-144.30;25.74;80946.31;5069595;28;20286;-52
2023/07/11 08:57:11;;;;;;;10.52;5.45;;;;;;;-144.30;25.66;80880.81;5068831;28;20203;-52
2023/07/11 08:59:47;;;;;;;12.93;6.03;;;;;;;-144.30;25.75;80982.06;5068914;28;20219;-52
2023/07/11 09:02:31;;;;;;;6.40;5.93;;;;;;;-144.30;26.02;81009.84;5068741;28;20671;-50
2023/07/11 09:05:03;;;;;;;7.93;5.85;;;;;;;-144.30;25.82;81067.44;5068943;28;20217;-53
2023/07/11 09:07:37;;;;;;;13.10;6.22;;;;;;;-144.30;25.85;81075.38;5068714;28;20278;-51
2023/07/11 09:10:22;;;;;;;8.07;5.88;;;;;;;-144.30;25.85;81025.72;5068832;28;20230;-50
2023/07/11 09:12:54;;;;;;;6.22;5.75;;;;;;;-144.30;25.68;80970.16;5068838;28;20191;-50
2023/07/11 09:15:29;;;;;;;7.63;6.00;;;;;;;-144.30;25.82;80995.97;5068532;28;20199;-49
2023/07/11 09:18:03;;;;;;;11.10;6.75;;;;;;;-144.30;25.88;80962.19;5068764;28;20226;-49
2023/07/11 09:20:41;;;;;;;11.60;5.65;;;;;;;-144.30;25.66;80930.44;5068705;28;20194;-51
2023/07/11 09:23:21;;;;;;;5.95;5.47;;;;;;;-144.30;25.83;80950.28;5071271;28;20199;-49
2023/07/11 09:25:48;;;;;;;6.20;5.65;;;;;;;-144.30;26.03;80926.47;5072702;28;20195;-51
2023/07/11 09:28:21;;;;;;;9.30;5.78;;;;;;;-144.30;25.88;80962.19;5072436;28;20659;-52
2023/07/11 09:30:52;;;;;;;11.40;7.43;;;;;;;-144.30;26.26;80916.53;5073060;28;20195;-50
2023/07/11 09:33:23;;;;;;;6.15;5.80;;;;;;;-144.30;25.99;80898.66;5072423;28;20199;-50
2023/07/11 09:35:53;;;;;;;9.55;6.57;;;;;;;-144.30;26.37;80910.59;5072496;28;20242;-51
2023/07/11 09:38:27;;;;;;;10.63;6.25;;;;;;;-144.30;26.21;80942.34;5072215;28;20215;-52
2023/07/11 09:41:02;;;;;;;6.05;5.43;;;;;;;-144.30;26.30;81035.66;5072497;28;20200;-52
2023/07/11 09:43:29;;;;;;;6.90;6.20;;;;;;;-144.30;26.43;81091.25;5065839;28;20202;-52
2023/07/11 09:45:56;;;;;;;7.93;6.32;;;;;;;-144.30;26.57;81105.16;5059417;28;20203;-53
2023/07/11 09:48:27;;;;;;;8.60;6.20;;;;;;;-144.30;26.99;81075.38;5052028;28;20222;-52
2023/07/11 09:51:05;;;;;;;10.52;5.95;;;;;;;-144.30;26.39;80946.31;5052312;28;20700;-50
2023/07/11 09:53:32;;;;;;;9.50;5.93;;;;;;;-144.30;26.29;80940.38;5052139;28;20200;-52
2023/07/11 09:56:01;;;;;;;8.88;6.30;;;;;;;-144.30;26.32;80864.91;5052208;28;20307;-52
2023/07/11 09:58:29;;;;;;;6.53;5.85;;;;;;;-144.30;26.53;80886.75;5051950;28;20230;-52
2023/07/11 10:01:01;;;;;;;6.90;6.30;;;;;;;-144.30;26.33;80858.97;5052354;28;20281;-51
2023/07/11 10:03:30;;;;;;;9.23;6.15;;;;;;;-144.30;26.02;80835.13;5052006;28;20563;-51
2023/07/11 10:05:59;;;;;;;7.78;6.43;;;;;;;-144.30;26.42;80934.41;5051815;28;20208;-51
2023/07/11 10:08:29;;;;;;;7.38;6.55;;;;;;;-144.30;26.64;80934.41;5054197;28;20203;-52
2023/07/11 10:11:02;;;;;;;6.72;6.22;;;;;;;-144.30;27.18;80974.13;5063787;28;20208;-52
2023/07/11 10:13:29;;;;;;;6.43;5.80;;;;;;;-144.30;26.83;80993.97;5071895;28;20199;-52
2023/07/11 10:15:57;;;;;;;7.90;6.25;;;;;;;-144.30;26.75;80997.94;5070356;28;20290;-52
2023/07/11 10:18:27;;;;;;;12.65;6.13;;;;;;;-144.30;26.82;81065.44;5060612;28;20607;-52
2023/07/11 10:21:00;;;;;;;11.10;6.35;;;;;;;-144.30;27.06;81105.16;5071938;28;20203;-52
2023/07/11 10:23:28;;;;;;;6.78;6.32;;;;;;;-144.30;27.16;81053.53;5071388;28;20195;-52
2023/07/11 10:26:03;;;;;;;13.98;6.93;;;;;;;-144.30;27.21;81059.50;5071982;28;20631;-50
2023/07/11 10:28:34;;;;;;;8.75;6.32;;;;;;;-144.30;27.42;81093.25;5071581;28;20554;-50
2023/07/11 10:31:09;;;;;;;8.55;7.18;;;;;;;-144.30;27.26;81192.50;5071600;28;20277;-52
2023/07/11 10:33:51;;;;;;;23.38;7.30;;;;;;;-144.30;27.83;81232.22;5070145;28;20277;-52
2023/07/11 10:36:24;;;;;;;8.27;5.93;;;;;;;-144.30;27.29;81178.63;5071387;28;20231;-51
2023/07/11 10:38:57;;;;;;;6.28;5.90;;;;;;;-144.30;27.61;81246.13;5071881;28;20229;-48
2023/07/11 10:41:29;;;;;;;8.80;5.95;;;;;;;-144.30;27.77;81214.34;5070980;28;20657;-53
2023/07/11 10:43:57;;;;;;;18.77;6.25;;;;;;;-144.30;27.64;81256.06;5071480;28;20200;-51
2023/07/11 10:46:36;;;;;;;7.15;5.85;;;;;;;-144.30;27.47;81323.56;5071165;28;20593;-52
2023/07/11 10:49:07;;;;;;;7.55;5.80;;;;;;;-144.30;27.52;81277.91;5071289;28;20588;-50
2023/07/11 10:51:40;;;;;;;9.35;6.18;;;;;;;-144.30;27.35;81299.72;5071006;28;20206;-50
2023/07/11 10:54:18;;;;;;;9.05;6.50;;;;;;;-144.30;27.44;81335.47;5071018;28;20227;-48
2023/07/11 10:56:51;;;;;;;9.85;6.47;;;;;;;-144.30;27.85;81353.34;5071071;28;20252;-48
2023/07/11 10:59:23;;;;;;;8.45;5.97;;;;;;;-144.30;27.93;81399.00;5070913;28;20223;-51
2023/07/11 11:02:01;;;;;;;7.55;6.72;;;;;;;-144.30;28.12;81389.09;5071212;28;20282;-51
2023/07/11 11:05:10;;;;;;;9.77;6.22;;;;;;;-144.30;27.62;81454.63;5070988;28;20268;-49
2023/07/11 11:07:41;;;;;;;7.57;6.30;;;;;;;-144.30;27.98;81406.97;5070825;28;20202;-50
2023/07/11 11:10:15;;;;;;;10.77;7.05;;;;;;;-144.30;27.45;81450.66;5070416;28;20269;-50
2023/07/11 11:12:46;;;;;;;7.13;6.53;;;;;;;-144.30;27.21;81450.66;5070916;28;20209;-50
2023/07/11 11:15:33;;;;;;;12.63;11.38;;;;;;;-144.30;27.72;81424.81;5070650;28;20231;-50
2023/07/11 11:18:18;;;;;;;7.13;6.38;;;;;;;-144.30;28.00;81397.03;5070866;28;20221;-50
2023/07/11 11:20:58;;;;;;;10.52;7.03;;;;;;;-144.30;27.73;81436.75;5070795;28;20203;-49
2023/07/11 11:23:37;;;;;;;8.70;7.63;;;;;;;-144.30;27.65;81444.69;5070163;28;20198;-51